• Join FlightAware (Why Join?)
  • Login
  • US Flag 
02:23AM EDT


 

Airport Tracker/Info


-or-


 

Live Flight TrackerFlight Track Log ✈ SWA407 ✈ 29-Apr-2013 ✈ KSFO - KSAN

Flight Track Log - Related Links

Times and Time Zones

All times are in EDT time to prevent confusion due to time zone crossing. See the SWA407 flight status page for this flight to view local times or setup timezone preferences in your user account.

Time Position Orientation Groundspeed Altitude Reporting Facility
EDT Latitude Longitude Course Direction KTS MPH feet Rate Location/Type
11:14PM 37.6306 -122.4022 298° West 159 183 1,800  Level Oakland Center
11:15PM 37.6617 -122.4758 298° West 193 222 5,700 3,780 Climbing Oakland Center
11:16PM 37.6478 -122.5361 254° West 226 260 9,600 3,240 Climbing Oakland Center
11:17PM 37.5658 -122.5419 183° South 301 346 12,300 3,060 Climbing Oakland Center
11:18PM 37.4697 -122.5458 182° South 341 392 15,900 3,600 Climbing Oakland Center
11:19PM 37.3653 -122.5522 183° South 370 426 19,700 3,420 Climbing Oakland Center
11:20PM 37.2556 -122.5558 182° South 392 451 22,900 3,000 Climbing Oakland Center
11:21PM 37.1506 -122.5078 160° South 418 481 25,900 2,700 Climbing Oakland Center
11:22PM 37.0533 -122.4225 145° Southeast 426 490 28,500 2,340 Climbing Oakland Center
11:23PM 36.9511 -122.3344 145° Southeast 444 511 30,700 2,160 Climbing Oakland Center
11:24PM 36.8458 -122.2425 145° Southeast 459 528 32,900 2,460 Climbing Oakland Center
11:25PM 36.7439 -122.1536 145° Southeast 453 521 35,800 2,400 Climbing Oakland Center
11:26PM 36.6419 -122.0711 147° Southeast 441 507 37,800 1,620 Climbing Oakland Center
11:27PM 36.5217 -121.9664 145° Southeast 442 509 39,200 1,440 Climbing Oakland Center
11:28PM 36.4186 -121.8797 146° Southeast 447 514 40,800 780 Climbing Oakland Center
11:29PM 36.3328 -121.8053 145° Southeast 445 512 40,900  Climbing Oakland Center
11:30PM 36.2111 -121.7025 146° Southeast 443 510 40,900  Level Oakland Center
11:31PM 36.1108 -121.6164 145° Southeast 440 506 40,900  Level Oakland Center
11:32PM 36.0094 -121.5322 146° Southeast 440 506 40,900  Level Oakland Center
11:33PM 35.9094 -121.4486 146° Southeast 439 505 40,900  Level Oakland Center
11:34PM 35.8103 -121.3631 145° Southeast 437 503 40,900  Level Oakland Center
11:35PM 35.7086 -121.2806 147° Southeast 438 504 40,900  Level Oakland Center
11:36PM 35.6100 -121.1958 145° Southeast 436 502 40,900  Level Oakland Center
11:37PM 35.5106 -121.1125 146° Southeast 435 501 40,900  Level Oakland Center
11:38PM 35.4350 -120.9983 129° Southeast 436 502 40,900  Level Oakland Center
11:39PM 35.3669 -120.8764 124° Southeast 436 502 40,900  Level Oakland Center
11:40PM 35.3317 -120.8153 125° Southeast 434 499 40,900  Level Los Angeles Center
11:41PM 35.2619 -120.6936 125° Southeast 434 499 40,900  Level Los Angeles Center
11:42PM 35.1931 -120.5714 125° Southeast 435 501 40,900  Level Los Angeles Center
11:43PM 35.1239 -120.4489 125° Southeast 436 502 40,900  Level Los Angeles Center
11:44PM 35.0522 -120.3247 125° Southeast 436 502 40,900  Level Los Angeles Center
11:45PM 34.9842 -120.2064 125° Southeast 434 499 40,900  Level Los Angeles Center
11:46PM 34.9147 -120.0850 125° Southeast 435 501 40,900  Level Los Angeles Center
11:47PM 34.8456 -119.9642 125° Southeast 437 503 40,900  Level Los Angeles Center
11:48PM 34.7753 -119.8450 126° Southeast 437 503 40,900  Level Los Angeles Center
11:49PM 34.6908 -119.6994 125° Southeast 440 506 40,900  Level Los Angeles Center
11:50PM 34.6011 -119.5508 126° Southeast 439 505 41,000  Climbing Los Angeles Center
11:51PM 34.5294 -119.4311 126° Southeast 439 505 41,000  Level Los Angeles Center
11:52PM 34.4592 -119.3103 125° Southeast 439 505 41,000  Level Los Angeles Center
11:53PM 34.3883 -119.1908 126° Southeast 438 504 41,000  Level Los Angeles Center
11:54PM 34.3172 -119.0728 126° Southeast 436 502 41,000  Level Los Angeles Center
11:55PM 34.2478 -118.9542 125° Southeast 434 499 41,000 -420 Level Los Angeles Center
11:56PM 34.1625 -118.8128 126° Southeast 434 499 40,200 -900 Descending Los Angeles Center
11:57PM 34.0925 -118.6953 126° Southeast 433 498 39,200 -960 Descending Los Angeles Center
11:58PM 34.0211 -118.5769 126° Southeast 437 503 38,300 -960 Descending Los Angeles Center
12:00AM 33.9483 -118.4578 126° Southeast 439 505 37,300 -960 Descending Los Angeles Center
12:01AM 33.8636 -118.3428 132° Southeast 454 522 36,400 -1,380 Descending Los Angeles Center
12:02AM 33.7750 -118.2328 134° Southeast 450 518 34,500 -2,580 Descending Los Angeles Center
12:03AM 33.6878 -118.1178 132° Southeast 451 519 31,200 -2,940 Descending Los Angeles Center
12:04AM 33.6031 -118.0106 133° Southeast 442 509 28,500 -2,160 Descending Los Angeles Center
12:05AM 33.5225 -117.9103 134° Southeast 421 484 26,400 -2,280 Descending Los Angeles Center
12:06AM 33.4300 -117.7928 133° Southeast 405 466 23,500 -2,640 Descending Los Angeles Center
12:07AM 33.3550 -117.6989 134° Southeast 393 452 21,100 -2,520 Descending Los Angeles Center
12:08AM 33.2833 -117.6000 131° Southeast 379 436 18,600 -2,580 Descending Southern California TRACON
12:09AM 33.2000 -117.5167 140° Southeast 375 432 16,200 -2,400 Descending Southern California TRACON
12:10AM 33.1167 -117.4500 146° Southeast 358 412 13,900 -2,160 Descending Southern California TRACON
12:11AM 33.0275 -117.3811 147° Southeast 350 403 11,500 -1,740 Descending Los Angeles Center
12:12AM 32.9497 -117.3189 146° Southeast 341 392 10,200 -1,500 Descending Los Angeles Center
12:13AM 32.8833 -117.2667 147° Southeast 298 343 8,800 -1,680 Descending Southern California TRACON
12:14AM 32.8167 -117.2167 148° Southeast 296 341 7,200 -1,560 Descending Southern California TRACON
12:15AM 32.8000 -117.1167 101° East 289 333 5,700 -960 Descending Southern California TRACON
12:16AM 32.7667 -117.0500 121° Southeast 250 288 5,300 -360 Descending Southern California TRACON
12:17AM 32.7500 -116.9667 103° East 213 245 5,000 -600 Descending Southern California TRACON
12:18AM 32.7167 -116.9333 140° Southeast 210 242 4,100 -600 Descending Southern California TRACON
12:19AM 32.6833 -116.9833 232° Southwest 191 220 3,800 -720 Descending Southern California TRACON
12:20AM 32.7000 -117.0333 292° West 195 224 2,700 -1,020 Descending Southern California TRACON
12:21AM 32.7167 -117.0833 292° West 142 163 1,800 -840 Descending Southern California TRACON
12:22AM 32.7167 -117.1333 270° West 127 146 1,100 -840 Descending Southern California TRACON
12:22AM 32.7214 -117.1431 300° West 131 151 700 -600 Descending Los Angeles Center
12:23AM 32.7314 -117.1767 289° West 128 147 300 -420 Descending Los Angeles Center
12:25AM 32.7333 -117.1833 263° West  Level FlightAware Approximate
12:32AM 32.7336 -117.1897 263° West  Level Estimated